Time;durP1;ratioP1;P1;durP2;ratioP2;P2;SDS_P1;SDS_P2;PMS_P1;PMS_P2;Temp;Humidity;BMP_temperature;BMP_pressure;BME280_temperature;BME280_humidity;BME280_pressure;Samples;Min_cycle;Max_cycle;Signal;HPM_P1;HPM_P2
2022/07/23 00:02:24;;;;;;;13.50;12.10;;;;;;;22.46;54.73;100510.81;108736;1273;22000;-80
2022/07/23 00:04:53;;;;;;;13.90;12.50;;;;;;;22.42;54.84;100511.70;108732;1273;21993;-78
2022/07/23 00:07:22;;;;;;;13.70;12.30;;;;;;;22.37;54.75;100509.09;108692;1273;22161;-79
2022/07/23 00:09:51;;;;;;;13.70;12.10;;;;;;;22.33;55.00;100506.38;108405;1277;22585;-79
2022/07/23 00:12:21;;;;;;;14.80;13.40;;;;;;;22.29;55.12;100501.90;108081;1282;22792;-79
2022/07/23 00:14:50;;;;;;;19.40;13.00;;;;;;;22.26;55.32;100501.17;108127;1280;22006;-79
2022/07/23 00:17:19;;;;;;;12.70;11.40;;;;;;;22.22;55.51;100501.48;108239;1279;22050;-79
2022/07/23 00:19:48;;;;;;;15.10;13.40;;;;;;;22.19;55.83;100499.92;108424;1276;24592;-79
2022/07/23 00:22:16;;;;;;;16.70;12.90;;;;;;;22.17;56.21;100500.27;108623;1273;22000;-78
2022/07/23 00:24:45;;;;;;;14.80;13.50;;;;;;;22.13;56.47;100497.72;108733;1273;23936;-79
2022/07/23 00:27:34;;;;;;;13.80;12.40;;;;;;;22.07;56.42;100497.75;108869;1267;21976;-78
2022/07/23 00:30:04;;;;;;;14.10;12.30;;;;;;;22.02;56.56;100502.21;109406;1261;22025;-80
2022/07/23 00:32:56;;;;;;;15.80;14.10;;;;;;;21.97;56.86;100505.08;109981;1260;21979;-78
2022/07/23 00:35:34;;;;;;;15.60;13.60;;;;;;;21.93;57.06;100506.45;109680;1261;22001;-79
2022/07/23 00:38:04;;;;;;;14.60;13.30;;;;;;;21.90;57.13;100509.41;109477;1260;23028;-78
2022/07/23 00:40:34;;;;;;;12.60;11.40;;;;;;;21.89;57.16;100507.61;109469;1260;23080;-78
2022/07/23 00:43:04;;;;;;;13.70;12.50;;;;;;;21.88;57.29;100504.79;109816;1260;22035;-79
2022/07/23 00:45:33;;;;;;;15.20;13.00;;;;;;;21.86;57.43;100504.44;109472;1261;21968;-79
2022/07/23 00:48:02;;;;;;;13.80;12.60;;;;;;;21.84;57.55;100503.38;109627;1260;23378;-80
2022/07/23 00:50:32;;;;;;;15.20;13.60;;;;;;;21.80;57.55;100495.80;109651;1261;23828;-79
2022/07/23 00:53:01;;;;;;;14.10;12.70;;;;;;;21.74;57.62;100490.58;109653;1260;21973;-79
2022/07/23 00:55:30;;;;;;;14.30;12.90;;;;;;;21.68;57.78;100491.86;109327;1262;21982;-79
2022/07/23 00:58:01;;;;;;;14.50;13.10;;;;;;;21.63;57.84;100491.00;109829;1260;22313;-78
2022/07/23 01:00:30;;;;;;;18.00;14.90;;;;;;;21.58;57.91;100489.17;109318;1260;22082;-78
2022/07/23 01:02:59;;;;;;;14.50;13.10;;;;;;;21.52;58.11;100493.04;109585;1260;23728;-79
2022/07/23 01:05:29;;;;;;;14.90;13.60;;;;;;;21.49;58.31;100495.38;109656;1260;21969;-78
2022/07/23 01:07:57;;;;;;;13.70;12.40;;;;;;;21.46;58.41;100495.92;108956;1267;21987;-78
2022/07/23 01:10:32;;;;;;;15.80;13.60;;;;;;;21.43;58.45;100491.86;108891;1267;21980;-78
2022/07/23 01:13:09;;;;;;;15.50;13.10;;;;;;;21.37;58.53;100487.75;109003;1267;22401;-79
2022/07/23 01:15:39;;;;;;;15.10;13.60;;;;;;;21.31;58.72;100491.10;108858;1266;23086;-78
2022/07/23 01:18:08;;;;;;;16.80;14.60;;;;;;;21.26;58.75;100495.94;108975;1267;22049;-78
2022/07/23 01:20:39;;;;;;;17.20;15.60;;;;;;;21.22;58.77;100499.33;108953;1267;22779;-78
2022/07/23 01:23:09;;;;;;;15.40;14.00;;;;;;;21.20;58.82;100499.81;108797;1267;22293;-78
2022/07/23 01:26:08;;;;;;;15.30;13.90;;;;;;;21.18;58.82;100498.91;108995;1264;21981;-77
2022/07/23 01:28:39;;;;;;;18.60;16.90;;;;;;;21.14;59.00;100490.70;109793;1260;21972;-80
2022/07/23 01:31:08;;;;;;;17.70;16.10;;;;;;;21.13;59.19;100488.29;109533;1264;22880;-80
2022/07/23 01:33:38;;;;;;;15.00;13.50;;;;;;;21.14;59.24;100487.65;108564;1271;21991;-77
2022/07/23 01:36:07;;;;;;;16.50;14.70;;;;;;;21.12;59.31;100489.12;108627;1270;23776;-78
2022/07/23 01:38:36;;;;;;;16.50;15.10;;;;;;;21.09;59.32;100487.81;108784;1270;22376;-79
2022/07/23 01:41:05;;;;;;;18.00;16.30;;;;;;;21.04;59.27;100488.49;108772;1271;23639;-78
2022/07/23 01:43:35;;;;;;;16.50;15.00;;;;;;;20.99;59.37;100489.52;109019;1270;22175;-78
2022/07/23 01:46:06;;;;;;;15.60;14.20;;;;;;;20.96;59.59;100492.55;108753;1270;23833;-78
2022/07/23 01:48:40;;;;;;;18.70;15.10;;;;;;;20.93;59.76;100494.63;108884;1267;21972;-77
2022/07/23 01:52:02;;;;;;;16.70;15.10;;;;;;;20.88;60.03;100491.03;109448;1260;21974;-78
2022/07/23 01:54:39;;;;;;;16.60;15.00;;;;;;;20.84;60.16;100492.29;109182;1267;22136;-78
2022/07/23 01:57:09;;;;;;;15.60;14.30;;;;;;;20.82;60.12;100487.98;108660;1273;21984;-78
2022/07/23 01:59:39;;;;;;;21.00;15.30;;;;;;;20.79;60.14;100487.53;108577;1273;22039;-78
2022/07/23 02:02:09;;;;;;;14.90;13.50;;;;;;;20.76;60.48;100488.87;108362;1279;23705;-79
2022/07/23 02:04:38;;;;;;;17.80;15.90;;;;;;;20.74;60.71;100491.29;108431;1278;22444;-79
2022/07/23 02:07:07;;;;;;;17.30;15.60;;;;;;;20.72;60.72;100489.66;108421;1279;22777;-79
2022/07/23 02:09:36;;;;;;;17.10;15.60;;;;;;;20.69;60.90;100486.87;107990;1281;22006;-79
2022/07/23 02:12:06;;;;;;;17.20;15.80;;;;;;;20.66;60.98;100485.20;108060;1279;22057;-79
2022/07/23 02:14:35;;;;;;;16.70;15.20;;;;;;;20.63;61.00;100484.36;108029;1281;22006;-79
2022/07/23 02:17:07;;;;;;;17.80;16.20;;;;;;;20.60;60.80;100481.98;108342;1279;22058;-79
2022/07/23 02:19:36;;;;;;;17.90;16.10;;;;;;;20.57;61.07;100480.95;108421;1276;21989;-78
2022/07/23 02:22:05;;;;;;;16.40;14.80;;;;;;;20.56;61.10;100478.70;108304;1279;22004;-80
2022/07/23 02:24:34;;;;;;;17.10;15.70;;;;;;;20.56;61.26;100480.14;108329;1278;23652;-79
2022/07/23 02:27:03;;;;;;;17.20;15.50;;;;;;;20.55;61.30;100478.73;108285;1276;24324;-79
2022/07/23 02:29:34;;;;;;;17.40;15.60;;;;;;;20.53;61.28;100483.63;108700;1273;21622;-79
2022/07/23 02:32:03;;;;;;;17.70;16.00;;;;;;;20.52;61.47;100483.88;108716;1272;21991;-80
2022/07/23 02:34:35;;;;;;;18.10;16.40;;;;;;;20.53;61.75;100476.77;108363;1279;23733;-80
2022/07/23 02:37:05;;;;;;;16.30;14.80;;;;;;;20.52;61.52;100481.32;108343;1279;22081;-80
2022/07/23 02:39:35;;;;;;;17.10;15.40;;;;;;;20.51;61.49;100483.21;108249;1273;22089;-80
2022/07/23 02:42:05;;;;;;;16.90;15.10;;;;;;;20.50;61.70;100479.81;108686;1275;22522;-80
2022/07/23 02:44:35;;;;;;;16.40;14.80;;;;;;;20.47;61.66;100479.98;108441;1276;22058;-80
2022/07/23 02:47:05;;;;;;;16.60;14.90;;;;;;;20.45;61.76;100486.14;108184;1281;23002;-79
2022/07/23 02:49:34;;;;;;;18.70;16.50;;;;;;;20.43;61.81;100489.02;107714;1281;21998;-78
2022/07/23 02:52:05;;;;;;;18.00;16.40;;;;;;;20.39;61.94;100488.13;107986;1279;23071;-79
2022/07/23 02:54:34;;;;;;;17.00;15.30;;;;;;;20.35;62.05;100490.05;107917;1282;22922;-79
2022/07/23 02:57:04;;;;;;;17.30;15.70;;;;;;;20.32;62.09;100489.39;108019;1279;21998;-79
2022/07/23 02:59:33;;;;;;;16.10;14.70;;;;;;;20.29;62.23;100486.00;108127;1277;22005;-79
2022/07/23 03:02:02;;;;;;;16.30;14.80;;;;;;;20.28;62.34;100483.71;108381;1277;22033;-79
2022/07/23 03:04:31;;;;;;;19.90;17.80;;;;;;;20.28;62.51;100482.40;108214;1276;22111;-78
2022/07/23 03:07:00;;;;;;;17.90;16.10;;;;;;;20.27;62.62;100480.55;108435;1276;21995;-78
2022/07/23 03:09:29;;;;;;;19.20;17.10;;;;;;;20.26;62.53;100476.52;108152;1276;23720;-79
2022/07/23 03:11:58;;;;;;;18.20;16.60;;;;;;;20.24;62.60;100469.45;108446;1270;21987;-78
2022/07/23 03:14:27;;;;;;;18.70;17.10;;;;;;;20.24;62.74;100463.22;108792;1270;21988;-78
2022/07/23 03:16:59;;;;;;;16.90;15.30;;;;;;;20.22;62.77;100460.23;108850;1270;23728;-78
2022/07/23 03:19:28;;;;;;;;;;;;;;;20.20;62.80;100459.36;108709;1270;22834;-79
2022/07/23 03:21:58;;;;;;;19.70;17.30;;;;;;;20.10;63.17;100456.91;108879;1267;22025;-77
2022/07/23 03:27:15;;;;;;;19.50;17.80;;;;;;;20.11;63.17;100458.20;109044;1264;22305;-80
2022/07/23 03:29:44;;;;;;;20.10;18.30;;;;;;;20.14;63.23;100457.92;109564;1262;23778;-78
2022/07/23 03:32:13;;;;;;;17.80;16.10;;;;;;;20.16;63.26;100460.41;109125;1267;22109;-80
2022/07/23 03:34:43;;;;;;;20.70;18.80;;;;;;;20.19;63.22;100467.95;109128;1267;23058;-79
2022/07/23 03:37:12;;;;;;;19.90;18.10;;;;;;;20.21;63.23;100473.27;108770;1273;23620;-79
2022/07/23 03:39:41;;;;;;;19.10;17.50;;;;;;;20.24;63.25;100474.89;108842;1273;22019;-79
2022/07/23 03:42:10;;;;;;;18.60;17.00;;;;;;;20.27;63.19;100482.11;108727;1273;21992;-79
2022/07/23 03:44:39;;;;;;;18.80;16.90;;;;;;;20.31;63.28;100481.73;108390;1276;21994;-79
2022/07/23 03:47:08;;;;;;;17.80;16.00;;;;;;;20.36;63.35;100476.45;108426;1276;22284;-78
2022/07/23 03:49:37;;;;;;;18.10;16.40;;;;;;;20.39;63.16;100473.48;108464;1274;21989;-78
2022/07/23 03:52:06;;;;;;;19.80;18.00;;;;;;;20.43;63.14;100466.44;108718;1273;22070;-78
2022/07/23 03:54:35;;;;;;;19.80;18.00;;;;;;;20.49;63.10;100466.52;108395;1276;23664;-79
2022/07/23 03:57:04;;;;;;;20.60;18.50;;;;;;;20.52;63.06;100462.83;108408;1276;22003;-79
2022/07/23 03:59:34;;;;;;;29.10;26.20;;;;;;;20.55;63.01;100466.82;108435;1276;21988;-79
2022/07/23 04:02:03;;;;;;;22.20;20.20;;;;;;;20.59;63.02;100469.70;108393;1273;22003;-79
2022/07/23 04:04:32;;;;;;;20.20;18.20;;;;;;;20.63;62.88;100471.11;108772;1273;21994;-80
2022/07/23 04:07:02;;;;;;;21.80;19.60;;;;;;;20.70;62.97;100474.31;108972;1273;23731;-79
2022/07/23 04:09:32;;;;;;;24.00;21.80;;;;;;;20.77;62.81;100476.92;108741;1273;23015;-79
2022/07/23 04:12:01;;;;;;;23.70;21.20;;;;;;;20.86;62.63;100474.75;108769;1268;23777;-78
2022/07/23 04:14:31;;;;;;;23.20;18.60;;;;;;;20.95;62.43;100476.80;109244;1262;23688;-78
2022/07/23 04:17:00;;;;;;;22.30;20.40;;;;;;;21.04;62.51;100479.84;109218;1266;21980;-78
2022/07/23 04:19:30;;;;;;;20.30;18.20;;;;;;;21.14;62.14;100479.05;109167;1267;23887;-78
2022/07/23 04:22:07;;;;;;;21.00;18.70;;;;;;;21.24;62.00;100476.60;109132;1267;23078;-78
2022/07/23 04:24:38;;;;;;;20.40;18.60;;;;;;;21.34;61.81;100474.21;108965;1267;22771;-79
2022/07/23 04:27:07;;;;;;;17.00;15.40;;;;;;;21.42;61.57;100474.48;109129;1267;21976;-79
2022/07/23 04:29:36;;;;;;;16.70;14.90;;;;;;;21.43;61.07;100480.20;109185;1267;22988;-78
2022/07/23 04:32:05;;;;;;;19.50;17.90;;;;;;;21.41;61.10;100475.27;109319;1267;23709;-78
2022/07/23 04:34:35;;;;;;;15.60;14.10;;;;;;;21.41;60.96;100477.70;109112;1259;22041;-78
2022/07/23 04:37:04;;;;;;;15.00;13.70;;;;;;;21.42;60.89;100476.33;109616;1259;24493;-78
2022/07/23 04:39:33;;;;;;;14.10;12.70;;;;;;;21.43;60.86;100471.17;109509;1260;21975;-79
2022/07/23 04:42:02;;;;;;;14.00;12.90;;;;;;;21.46;60.81;100463.65;109811;1261;23773;-79
2022/07/23 04:44:32;;;;;;;16.70;14.70;;;;;;;21.48;60.68;100460.63;109031;1266;21988;-79
2022/07/23 04:47:02;;;;;;;15.10;13.50;;;;;;;21.52;60.67;100463.25;109264;1267;22167;-79
2022/07/23 04:49:31;;;;;;;15.70;14.30;;;;;;;21.54;60.49;100461.58;109172;1267;21972;-79
2022/07/23 04:52:00;;;;;;;15.20;13.70;;;;;;;21.56;60.32;100461.41;109151;1267;21982;-79
2022/07/23 04:54:30;;;;;;;15.10;13.40;;;;;;;21.59;60.22;100457.05;109166;1266;22005;-79
2022/07/23 04:56:59;;;;;;;15.80;14.30;;;;;;;21.65;60.41;100457.06;109198;1267;21975;-78
2022/07/23 04:59:28;;;;;;;19.30;14.70;;;;;;;21.72;60.25;100456.23;109254;1266;22647;-79
2022/07/23 05:02:01;;;;;;;15.00;13.70;;;;;;;21.77;59.97;100454.50;109360;1261;21984;-79
2022/07/23 05:04:31;;;;;;;15.60;14.20;;;;;;;21.85;60.15;100450.89;109816;1260;21969;-80
2022/07/23 05:07:00;;;;;;;16.90;15.40;;;;;;;21.95;60.16;100452.75;109628;1260;21979;-77
2022/07/23 05:09:29;;;;;;;16.20;14.50;;;;;;;22.04;59.99;100451.79;109566;1262;21975;-78
2022/07/23 05:11:58;;;;;;;15.50;14.10;;;;;;;22.14;60.02;100447.83;109592;1260;21986;-80
2022/07/23 05:14:27;;;;;;;20.30;15.00;;;;;;;22.25;59.83;100446.71;109549;1260;23043;-78
2022/07/23 05:16:56;;;;;;;15.80;14.30;;;;;;;22.39;59.74;100445.44;109687;1259;23079;-78
2022/07/23 05:19:26;;;;;;;15.70;14.00;;;;;;;22.53;59.36;100443.08;109832;1261;21988;-78
2022/07/23 05:21:56;;;;;;;15.90;14.20;;;;;;;22.66;59.12;100437.70;110151;1259;21970;-78
2022/07/23 05:24:24;;;;;;;15.30;13.90;;;;;;;22.83;58.78;100438.21;109910;1260;22082;-79
2022/07/23 05:26:54;;;;;;;13.90;12.70;;;;;;;22.99;58.28;100435.34;109887;1261;23052;-79
2022/07/23 05:29:28;;;;;;;14.40;13.10;;;;;;;23.12;57.81;100429.02;109426;1264;21975;-79
2022/07/23 05:31:57;;;;;;;14.50;13.20;;;;;;;23.28;57.69;100424.75;109059;1267;22000;-78
2022/07/23 05:34:30;;;;;;;16.80;14.40;;;;;;;23.44;57.14;100419.09;108955;1267;22159;-80
2022/07/23 05:37:01;;;;;;;14.10;12.50;;;;;;;23.64;57.06;100409.84;108856;1267;21995;-79
2022/07/23 05:39:30;;;;;;;13.10;11.80;;;;;;;23.82;56.72;100408.75;108902;1269;22033;-78
2022/07/23 05:41:59;;;;;;;14.00;12.50;;;;;;;24.09;56.53;100407.39;108656;1270;23719;-79
2022/07/23 05:44:30;;;;;;;14.00;12.70;;;;;;;24.36;55.89;100401.10;108794;1268;22059;-80
2022/07/23 05:47:02;;;;;;;11.70;10.60;;;;;;;24.62;55.36;100395.48;108924;1265;22045;-79
2022/07/23 05:49:32;;;;;;;16.40;11.40;;;;;;;24.94;55.40;100392.80;109287;1261;23068;-79
2022/07/23 05:52:26;;;;;;;10.40;9.50;;;;;;;25.36;54.39;100387.18;109683;1262;22027;-79
2022/07/23 05:55:28;;;;;;;8.70;8.00;;;;;;;25.76;53.45;100382.92;109448;1261;22026;-82
2022/07/23 05:58:00;;;;;;;9.50;7.40;;;;;;;26.18;52.51;100378.66;109102;1267;23798;-81
2022/07/23 06:00:37;;;;;;;9.00;8.20;;;;;;;26.58;51.29;100375.84;109369;1266;24080;-80
2022/07/23 06:03:09;;;;;;;8.60;7.50;;;;;;;26.95;50.31;100380.26;109147;1267;21975;-82
2022/07/23 06:05:39;;;;;;;7.50;6.80;;;;;;;27.34;49.43;100377.70;109411;1267;22443;-80
2022/07/23 06:08:09;;;;;;;7.40;6.30;;;;;;;27.65;47.88;100376.73;109204;1267;23069;-83
2022/07/23 06:10:41;;;;;;;8.60;5.60;;;;;;;27.86;47.05;100374.11;108880;1271;23620;-79
2022/07/23 06:13:14;;;;;;;7.50;6.60;;;;;;;28.02;46.52;100379.93;108782;1270;23702;-78
2022/07/23 06:15:54;;;;;;;8.60;7.70;;;;;;;28.25;46.09;100380.98;108700;1267;21968;-80
2022/07/23 06:18:24;;;;;;;7.10;6.40;;;;;;;28.57;46.08;100380.37;109282;1265;24442;-78
2022/07/23 06:20:55;;;;;;;6.60;5.90;;;;;;;28.94;44.96;100379.56;109149;1264;23695;-79
2022/07/23 06:23:42;;;;;;;7.90;7.10;;;;;;;29.16;43.64;100382.38;109139;1266;21991;-78
2022/07/23 06:26:21;;;;;;;8.60;6.60;;;;;;;29.25;42.77;100382.97;108783;1270;21985;-79
2022/07/23 06:29:07;;;;;;;7.90;6.20;;;;;;;29.27;42.59;100377.88;108498;1273;22068;-78
2022/07/23 06:31:47;;;;;;;8.50;7.00;;;;;;;29.23;42.22;100379.03;108625;1273;22008;-79
2022/07/23 06:34:33;;;;;;;6.30;5.60;;;;;;;29.17;42.41;100379.14;109022;1273;22015;-79
2022/07/23 06:37:07;;;;;;;7.20;6.60;;;;;;;29.21;42.13;100384.54;108641;1273;21986;-80
2022/07/23 06:39:44;;;;;;;7.10;6.40;;;;;;;29.27;42.13;100382.02;108720;1273;23143;-80
2022/07/23 06:42:18;;;;;;;10.60;6.70;;;;;;;29.38;41.83;100384.16;108912;1273;22539;-79
2022/07/23 06:44:48;;;;;;;7.60;6.40;;;;;;;29.47;41.72;100387.63;108714;1273;22001;-80
2022/07/23 06:47:18;;;;;;;6.20;5.60;;;;;;;29.57;41.38;100388.52;109029;1267;22793;-79
2022/07/23 06:49:50;;;;;;;6.80;6.30;;;;;;;29.61;40.75;100388.00;109166;1267;22001;-79
2022/07/23 06:52:21;;;;;;;7.30;5.70;;;;;;;29.65;40.85;100385.73;109378;1267;21995;-79
2022/07/23 06:54:52;;;;;;;6.50;5.70;;;;;;;29.80;40.86;100386.59;109136;1267;23197;-81
2022/07/23 06:57:25;;;;;;;9.70;6.60;;;;;;;30.05;40.39;100386.86;109214;1267;22877;-81
2022/07/23 06:59:54;;;;;;;6.90;5.80;;;;;;;30.31;39.61;100388.36;108972;1270;22357;-82
2022/07/23 07:02:24;;;;;;;9.20;5.40;;;;;;;30.54;39.00;100387.63;108988;1270;23079;-80
2022/07/23 07:04:56;;;;;;;6.90;5.90;;;;;;;30.69;38.01;100386.48;108384;1276;21993;-80
2022/07/23 07:07:34;;;;;;;5.80;5.30;;;;;;;30.75;37.32;100388.64;108404;1275;22485;-81
2022/07/23 07:10:04;;;;;;;6.10;5.50;;;;;;;30.90;37.97;100388.17;108584;1276;23639;-80
2022/07/23 07:12:35;;;;;;;7.30;5.80;;;;;;;31.19;37.41;100381.74;108525;1276;22048;-86
2022/07/23 07:15:08;;;;;;;9.30;5.10;;;;;;;31.42;36.47;100378.89;108173;1283;23102;-81
2022/07/23 07:17:48;;;;;;;9.50;5.60;;;;;;;31.65;36.13;100372.49;108038;1282;22084;-81
2022/07/23 07:20:24;;;;;;;6.60;5.90;;;;;;;31.84;35.40;100371.65;107803;1288;22031;-82
2022/07/23 07:23:00;;;;;;;6.30;5.50;;;;;;;31.98;35.74;100370.42;107863;1287;22945;-82
2022/07/23 07:25:33;;;;;;;7.40;6.00;;;;;;;32.16;35.48;100363.09;107829;1288;22020;-81
2022/07/23 07:28:04;;;;;;;;;;;;;;;32.28;35.12;100361.77;107282;1290;21993;-81
2022/07/23 07:30:35;;;;;;;8.20;5.30;;;;;;;32.31;34.88;100365.44;107757;1287;22074;-81
2022/07/23 07:33:05;;;;;;;5.80;5.10;;;;;;;32.44;35.43;100361.72;107824;1282;22783;-81
2022/07/23 07:35:39;;;;;;;8.50;5.10;;;;;;;32.73;34.81;100363.02;108276;1276;22103;-81
2022/07/23 07:38:09;;;;;;;8.50;5.30;;;;;;;32.98;34.14;100362.80;108646;1273;23681;-81
2022/07/23 07:40:42;;;;;;;6.70;5.40;;;;;;;33.11;33.47;100361.23;108716;1273;21997;-81
2022/07/23 07:43:18;;;;;;;8.50;4.80;;;;;;;33.19;33.08;100359.45;108364;1276;21994;-84
2022/07/23 07:45:47;;;;;;;7.10;5.20;;;;;;;33.30;33.38;100359.10;108561;1270;21986;-81
2022/07/23 07:48:16;;;;;;;8.50;5.70;;;;;;;33.52;33.02;100367.98;108799;1270;21982;-82
2022/07/23 07:50:47;;;;;;;6.50;4.90;;;;;;;33.73;32.51;100364.31;108953;1270;22226;-80
2022/07/23 07:53:17;;;;;;;5.60;5.00;;;;;;;33.83;31.64;100361.70;108799;1267;21995;-81
2022/07/23 07:55:46;;;;;;;5.90;5.30;;;;;;;34.06;31.51;100355.92;108869;1273;22448;-78
2022/07/23 07:58:22;;;;;;;8.60;5.20;;;;;;;34.19;30.90;100352.96;108422;1276;24416;-79
2022/07/23 08:00:53;;;;;;;7.80;5.30;;;;;;;34.22;30.69;100350.71;108468;1270;23069;-79
2022/07/23 08:03:22;;;;;;;8.10;5.00;;;;;;;34.13;30.61;100348.85;108880;1270;23688;-79
2022/07/23 08:05:53;;;;;;;10.50;5.30;;;;;;;33.85;30.20;100348.21;108703;1276;22049;-78
2022/07/23 08:08:25;;;;;;;7.80;5.00;;;;;;;33.50;30.99;100343.00;108415;1276;23620;-79
2022/07/23 08:10:54;;;;;;;8.10;5.70;;;;;;;33.13;30.99;100335.69;108561;1276;23808;-79
2022/07/23 08:13:23;;;;;;;6.10;5.50;;;;;;;32.66;31.48;100329.13;108482;1273;23013;-79
2022/07/23 08:15:54;;;;;;;6.00;5.40;;;;;;;32.27;32.36;100323.83;108525;1273;24047;-79
2022/07/23 08:18:24;;;;;;;8.70;5.00;;;;;;;32.14;33.61;100320.52;108757;1273;21987;-79
2022/07/23 08:20:53;;;;;;;13.30;6.40;;;;;;;32.27;33.58;100321.87;108869;1273;21977;-80
2022/07/23 08:23:22;;;;;;;6.80;5.40;;;;;;;32.47;32.90;100323.48;109197;1264;22383;-79
2022/07/23 08:26:00;;;;;;;7.10;5.30;;;;;;;32.52;32.52;100321.88;109577;1264;24114;-80
2022/07/23 08:28:32;;;;;;;13.00;11.70;;;;;;;32.47;32.76;100317.69;108885;1267;22438;-79
2022/07/23 08:31:02;;;;;;;5.80;5.30;;;;;;;32.63;33.54;100309.26;108897;1270;22106;-79
2022/07/23 08:33:32;;;;;;;5.60;5.10;;;;;;;32.87;33.07;100307.77;108951;1270;21955;-80
2022/07/23 08:36:03;;;;;;;;;;;;;;;32.98;32.42;100313.04;109191;1267;22753;-80
2022/07/23 08:38:35;;;;;;;7.60;7.00;;;;;;;33.05;32.41;100310.93;108888;1274;23610;-80
2022/07/23 08:41:07;;;;;;;6.90;5.30;;;;;;;33.25;32.49;100306.38;108711;1273;22055;-79
2022/07/23 08:43:36;;;;;;;6.40;5.70;;;;;;;33.43;32.12;100309.70;108811;1276;21987;-79
2022/07/23 08:46:06;;;;;;;6.10;5.60;;;;;;;33.46;31.51;100310.42;108728;1270;23193;-79
2022/07/23 08:48:36;;;;;;;11.00;5.40;;;;;;;33.32;31.33;100310.59;109112;1270;23055;-80
2022/07/23 08:51:10;;;;;;;5.50;5.00;;;;;;;33.13;31.37;100308.65;108779;1271;22205;-79
2022/07/23 08:53:41;;;;;;;10.50;5.90;;;;;;;32.96;31.37;100308.01;108982;1269;22313;-80
2022/07/23 08:56:10;;;;;;;6.00;5.20;;;;;;;32.86;31.74;100307.35;108536;1268;23622;-80
2022/07/23 08:58:39;;;;;;;7.30;5.70;;;;;;;32.79;31.70;100307.04;109206;1264;22758;-80
2022/07/23 09:01:08;;;;;;;7.10;5.00;;;;;;;32.77;31.76;100297.71;109018;1264;23849;-80
2022/07/23 09:03:40;;;;;;;5.10;4.70;;;;;;;32.82;31.51;100293.48;109169;1267;22027;-80
2022/07/23 09:06:09;;;;;;;8.40;5.50;;;;;;;32.95;31.64;100296.55;109512;1261;22071;-80
2022/07/23 09:08:42;;;;;;;8.90;5.60;;;;;;;33.12;31.59;100298.37;109816;1261;21991;-80
2022/07/23 09:11:17;;;;;;;24.90;7.00;;;;;;;33.22;31.58;100301.32;109845;1261;23589;-80
2022/07/23 09:14:01;;;;;;;12.30;5.80;;;;;;;33.37;32.07;100298.17;109536;1261;23765;-80
2022/07/23 09:16:33;;;;;;;7.80;5.50;;;;;;;33.59;32.04;100300.11;109521;1261;23059;-80
2022/07/23 09:19:05;;;;;;;11.80;10.60;;;;;;;33.83;31.67;100298.13;109789;1261;21998;-80
2022/07/23 09:21:37;;;;;;;5.80;5.30;;;;;;;34.12;31.52;100301.63;109419;1261;23632;-80
2022/07/23 09:24:10;;;;;;;10.30;8.90;;;;;;;34.42;30.63;100300.89;109452;1262;23119;-80
2022/07/23 09:26:44;;;;;;;6.20;5.50;;;;;;;34.75;29.70;100298.36;109539;1261;21980;-80
2022/07/23 09:29:25;;;;;;;5.70;5.10;;;;;;;35.01;29.52;100293.44;109489;1261;22044;-79
2022/07/23 09:32:01;;;;;;;8.70;5.90;;;;;;;35.27;29.27;100287.08;109468;1262;21977;-79
2022/07/23 09:34:40;;;;;;;13.40;5.10;;;;;;;35.53;28.47;100282.30;109195;1268;23289;-80
2022/07/23 09:37:13;;;;;;;7.60;5.20;;;;;;;35.65;28.17;100282.09;108601;1275;22015;-80
2022/07/23 09:39:45;;;;;;;8.20;5.00;;;;;;;35.68;27.71;100280.25;108695;1273;21993;-81
2022/07/23 09:42:24;;;;;;;7.60;5.00;;;;;;;35.72;27.34;100280.23;108710;1273;23690;-81
2022/07/23 09:44:58;;;;;;;6.60;4.80;;;;;;;35.66;27.05;100282.44;108686;1273;24297;-80
2022/07/23 09:47:31;;;;;;;6.50;5.70;;;;;;;35.58;27.20;100283.83;108649;1273;23755;-81
2022/07/23 09:50:13;;;;;;;5.90;4.70;;;;;;;35.53;26.74;100281.29;108667;1273;22055;-80
2022/07/23 09:52:41;;;;;;;8.40;5.20;;;;;;;35.32;26.65;100286.61;108870;1270;21990;-80
2022/07/23 09:55:11;;;;;;;8.60;5.20;;;;;;;35.11;26.76;100287.63;109427;1261;21980;-80
2022/07/23 09:57:45;;;;;;;13.60;5.40;;;;;;;34.92;26.97;100286.89;109503;1264;21988;-80
2022/07/23 10:00:14;;;;;;;8.10;5.60;;;;;;;34.74;27.11;100285.98;109347;1261;21988;-80
2022/07/23 10:02:46;;;;;;;5.70;5.10;;;;;;;34.52;27.23;100285.95;109623;1261;22998;-79
2022/07/23 10:05:31;;;;;;;8.40;7.50;;;;;;;34.24;27.39;100281.11;109660;1261;21980;-80
2022/07/23 10:08:05;;;;;;;10.70;6.40;;;;;;;34.09;27.68;100276.02;109530;1261;21991;-81
2022/07/23 10:10:50;;;;;;;9.80;4.70;;;;;;;33.97;27.57;100270.25;109627;1261;23085;-79
2022/07/23 10:13:55;;;;;;;9.60;5.80;;;;;;;33.76;27.98;100274.19;109330;1266;21985;-80
2022/07/23 10:16:32;;;;;;;8.40;7.30;;;;;;;33.70;28.18;100279.78;109437;1267;23801;-80
2022/07/23 10:19:03;;;;;;;57.70;10.20;;;;;;;33.69;27.97;100282.10;109049;1267;21991;-80
2022/07/23 10:21:48;;;;;;;7.30;5.40;;;;;;;33.66;28.09;100282.84;109228;1267;21986;-80
2022/07/23 10:24:47;;;;;;;7.20;5.20;;;;;;;33.66;28.35;100278.59;109244;1267;22237;-81
2022/07/23 10:27:34;;;;;;;6.60;6.00;;;;;;;33.66;28.37;100273.52;109209;1267;21996;-79
2022/07/23 10:30:41;;;;;;;7.50;5.10;;;;;;;33.75;28.29;100271.85;109171;1266;23611;-82
2022/07/23 10:33:48;;;;;;;5.20;4.70;;;;;;;33.75;28.15;100272.88;108980;1270;21985;-79
2022/07/23 10:36:40;;;;;;;9.40;5.50;;;;;;;33.68;28.37;100275.23;108807;1273;23097;-80
2022/07/23 10:39:33;;;;;;;6.60;6.00;;;;;;;33.46;28.76;100277.95;109157;1267;21996;-80
2022/07/23 10:42:14;;;;;;;8.90;6.00;;;;;;;33.00;29.85;100282.92;109168;1267;23078;-79
2022/07/23 10:44:47;;;;;;;7.30;6.20;;;;;;;32.71;30.68;100282.29;108810;1270;22082;-79
2022/07/23 10:47:42;;;;;;;7.80;6.00;;;;;;;32.41;31.21;100290.49;108771;1273;21997;-81
2022/07/23 10:50:34;;;;;;;7.30;6.60;;;;;;;32.02;31.93;100294.14;108714;1270;23705;-79
2022/07/23 10:53:08;;;;;;;14.00;6.70;;;;;;;31.64;32.54;100290.85;109233;1267;23685;-80
2022/07/23 10:55:55;;;;;;;11.70;5.70;;;;;;;31.37;33.05;100291.50;109404;1265;23041;-80
2022/07/23 10:58:49;;;;;;;6.10;5.60;;;;;;;31.15;33.34;100290.00;108919;1270;21982;-80
2022/07/23 11:01:39;;;;;;;27.60;7.70;;;;;;;30.90;33.54;100301.12;108725;1273;21997;-80
2022/07/23 11:04:50;;;;;;;61.30;9.00;;;;;;;30.53;33.79;100318.31;108767;1270;21988;-81
2022/07/23 11:07:22;;;;;;;57.70;9.30;;;;;;;30.19;34.48;100328.11;109037;1271;22436;-82
2022/07/23 11:10:05;;;;;;;26.10;6.20;;;;;;;29.92;34.71;100328.50;108570;1276;22017;-82
2022/07/23 11:12:36;;;;;;;10.20;4.50;;;;;;;29.66;35.31;100325.86;108518;1276;23739;-81
2022/07/23 11:15:15;;;;;;;14.40;4.50;;;;;;;29.44;35.85;100333.30;108639;1276;22011;-82
2022/07/23 11:17:50;;;;;;;23.10;5.70;;;;;;;29.22;36.64;100340.13;108696;1273;22779;-81
2022/07/23 11:20:28;;;;;;;14.00;4.40;;;;;;;29.01;37.20;100351.86;108868;1273;22005;-83
2022/07/23 11:23:10;;;;;;;11.90;4.50;;;;;;;28.77;37.96;100361.80;108775;1273;21992;-80
2022/07/23 11:25:53;;;;;;;12.30;4.70;;;;;;;28.52;38.85;100366.20;108721;1273;22052;-80
2022/07/23 11:28:42;;;;;;;11.10;4.30;;;;;;;28.25;39.69;100369.19;108666;1273;22467;-79
2022/07/23 11:31:17;;;;;;;12.70;5.30;;;;;;;27.93;40.41;100366.83;108539;1279;22040;-83
2022/07/23 11:34:31;;;;;;;14.10;4.80;;;;;;;27.54;41.37;100363.90;108502;1279;23719;-81
2022/07/23 11:37:06;;;;;;;11.40;5.80;;;;;;;27.19;43.29;100364.29;108360;1279;22996;-81
2022/07/23 11:39:39;;;;;;;5.80;5.20;;;;;;;26.96;44.66;100362.25;108665;1273;23074;-81
2022/07/23 11:42:08;;;;;;;9.10;5.60;;;;;;;26.75;45.66;100371.33;108919;1267;21991;-80